Time;durP1;ratioP1;P1;durP2;ratioP2;P2;SDS_P1;SDS_P2;PMS_P1;PMS_P2;Temp;Humidity;BMP_temperature;BMP_pressure;BME280_temperature;BME280_humidity;BME280_pressure;Samples;Min_cycle;Max_cycle;Signal;HPM_P1;HPM_P2
2023/04/23 00:01:18;;;;;;;;;;;14.60;63.70;;;;;;5013405;28;20697;-77
2023/04/23 00:03:43;;;;;;;;;;;14.50;63.70;;;;;;4998776;28;19936;-77
2023/04/23 00:06:09;;;;;;;;;;;14.50;63.70;;;;;;4999521;28;19925;-77
2023/04/23 00:08:38;;;;;;;;;;;14.50;63.80;;;;;;5012453;28;19921;-77
2023/04/23 00:11:04;;;;;;;;;;;14.50;63.80;;;;;;5010719;28;19929;-76
2023/04/23 00:13:29;;;;;;;;;;;14.50;63.90;;;;;;5011646;28;20310;-76
2023/04/23 00:15:55;;;;;;;;;;;14.40;63.80;;;;;;5010680;28;19921;-77
2023/04/23 00:18:20;;;;;;;;;;;14.40;63.90;;;;;;5010465;28;19947;-77
2023/04/23 00:20:46;;;;;;;;;;;14.40;63.90;;;;;;5014413;28;19932;-77
2023/04/23 00:23:11;;;;;;;;;;;14.40;63.90;;;;;;5002713;28;19960;-77
2023/04/23 00:25:37;;;;;;;;;;;14.40;64.00;;;;;;4996909;28;19925;-77
2023/04/23 00:28:02;;;;;;;;;;;14.30;63.90;;;;;;5012378;28;19961;-77
2023/04/23 00:30:27;;;;;;;;;;;14.30;64.00;;;;;;5013851;28;19920;-77
2023/04/23 00:32:53;;;;;;;;;;;14.30;64.00;;;;;;4998413;28;20410;-77
2023/04/23 00:35:19;;;;;;;;;;;14.30;64.00;;;;;;5014864;28;19921;-77
2023/04/23 00:37:45;;;;;;;;;;;14.30;64.10;;;;;;4996314;28;19928;-77
2023/04/23 00:40:10;;;;;;;;;;;14.20;64.10;;;;;;5014275;28;19929;-77
2023/04/23 00:42:36;;;;;;;;;;;14.20;64.10;;;;;;5010075;28;19975;-77
2023/04/23 00:45:01;;;;;;;;;;;14.20;64.10;;;;;;5011740;28;19921;-77
2023/04/23 00:47:27;;;;;;;;;;;14.20;64.20;;;;;;4998070;28;20051;-77
2023/04/23 00:49:54;;;;;;;;;;;14.20;64.20;;;;;;5026904;28;19922;-76
2023/04/23 00:52:20;;;;;;;;;;;14.10;64.30;;;;;;5013924;28;19972;-77
2023/04/23 00:54:45;;;;;;;;;;;14.20;64.30;;;;;;5009035;28;20016;-77
2023/04/23 00:57:11;;;;;;;;;;;14.10;64.20;;;;;;4996680;28;19925;-77
2023/04/23 00:59:36;;;;;;;;;;;14.10;64.20;;;;;;5011376;28;19925;-77
2023/04/23 01:02:02;;;;;;;;;;;14.10;64.30;;;;;;4996514;28;19921;-77
2023/04/23 01:04:28;;;;;;;;;;;14.10;64.30;;;;;;5010195;28;19926;-77
2023/04/23 01:06:54;;;;;;;;;;;14.10;64.40;;;;;;5026683;28;19983;-77
2023/04/23 01:09:19;;;;;;;;;;;14.00;64.30;;;;;;5012489;28;19921;-77
2023/04/23 01:11:44;;;;;;;;;;;14.00;64.30;;;;;;5007444;28;19979;-77
2023/04/23 01:14:10;;;;;;;;;;;14.00;64.40;;;;;;5011966;28;20016;-77
2023/04/23 01:16:37;;;;;;;;;;;14.00;64.40;;;;;;5010109;28;20458;-77
2023/04/23 01:19:04;;;;;;;;;;;14.00;64.40;;;;;;4996345;28;19936;-77
2023/04/23 01:21:31;;;;;;;;;;;14.00;64.40;;;;;;5011427;28;19921;-77
2023/04/23 01:23:57;;;;;;;;;;;14.00;64.50;;;;;;5011896;28;19960;-77
2023/04/23 01:26:22;;;;;;;;;;;13.90;64.40;;;;;;5012520;28;19963;-77
2023/04/23 01:28:48;;;;;;;;;;;13.90;64.50;;;;;;5007807;28;19932;-77
2023/04/23 01:31:13;;;;;;;;;;;14.00;64.60;;;;;;5028530;28;19925;-77
2023/04/23 01:33:39;;;;;;;;;;;13.90;64.50;;;;;;5010633;28;19921;-77
2023/04/23 01:36:04;;;;;;;;;;;13.90;64.50;;;;;;5010162;28;19929;-76
2023/04/23 01:38:30;;;;;;;;;;;13.90;64.60;;;;;;5026460;28;19932;-76
2023/04/23 01:40:56;;;;;;;;;;;13.90;64.60;;;;;;5011447;28;20579;-78
2023/04/23 01:43:21;;;;;;;;;;;13.90;64.70;;;;;;5015214;28;20302;-77
2023/04/23 01:45:47;;;;;;;;;;;13.80;64.60;;;;;;5008542;28;19971;-77
2023/04/23 01:48:12;;;;;;;;;;;13.80;64.70;;;;;;5008791;28;19925;-77
2023/04/23 01:50:38;;;;;;;;;;;13.80;64.80;;;;;;5013057;28;20288;-77
2023/04/23 01:53:03;;;;;;;;;;;13.80;64.80;;;;;;5013868;28;19929;-77
2023/04/23 01:55:29;;;;;;;;;;;13.80;64.80;;;;;;5011112;28;19921;-76
2023/04/23 01:57:54;;;;;;;;;;;13.80;64.80;;;;;;5025930;28;19960;-77
2023/04/23 02:00:20;;;;;;;;;;;13.80;64.80;;;;;;5011102;28;19936;-77
2023/04/23 02:02:45;;;;;;;;;;;13.80;64.90;;;;;;5011106;28;19921;-77
2023/04/23 02:05:11;;;;;;;;;;;13.80;64.90;;;;;;5009953;28;19964;-78
2023/04/23 02:07:37;;;;;;;;;;;13.80;64.90;;;;;;5008837;28;19921;-77
2023/04/23 02:10:03;;;;;;;;;;;13.80;64.90;;;;;;5011418;28;19974;-77
2023/04/23 02:12:28;;;;;;;;;;;13.80;65.00;;;;;;5027236;28;20467;-78
2023/04/23 02:14:54;;;;;;;;;;;13.80;65.00;;;;;;5028080;28;20466;-77
2023/04/23 02:17:20;;;;;;;;;;;13.70;64.90;;;;;;5028032;28;19925;-78
2023/04/23 02:19:45;;;;;;;;;;;13.70;64.90;;;;;;5011213;28;19929;-77
2023/04/23 02:22:11;;;;;;;;;;;13.70;65.10;;;;;;5031131;28;19943;-77
2023/04/23 02:24:37;;;;;;;;;;;13.70;65.00;;;;;;4998770;28;19983;-77
2023/04/23 02:27:03;;;;;;;;;;;13.70;65.10;;;;;;5013820;28;20310;-77
2023/04/23 02:29:28;;;;;;;;;;;13.70;65.10;;;;;;5014370;28;19917;-77
2023/04/23 02:31:54;;;;;;;;;;;13.60;65.20;;;;;;5012430;28;20075;-77
2023/04/23 02:34:19;;;;;;;;;;;13.60;65.20;;;;;;4996483;28;19917;-76
2023/04/23 02:36:45;;;;;;;;;;;13.60;65.20;;;;;;5010742;28;19921;-77
2023/04/23 02:39:11;;;;;;;;;;;13.60;65.20;;;;;;4998117;28;20675;-77
2023/04/23 02:41:36;;;;;;;;;;;13.60;65.30;;;;;;4996943;28;19920;-77
2023/04/23 02:44:02;;;;;;;;;;;13.60;65.30;;;;;;5029295;28;19921;-77
2023/04/23 02:46:27;;;;;;;;;;;13.60;65.30;;;;;;5008897;28;20070;-77
2023/04/23 02:48:52;;;;;;;;;;;13.60;65.40;;;;;;5011776;28;19921;-77
2023/04/23 02:51:18;;;;;;;;;;;13.60;65.40;;;;;;5014682;28;20403;-76
2023/04/23 02:53:43;;;;;;;;;;;13.50;65.40;;;;;;5028839;28;19921;-77
2023/04/23 02:56:09;;;;;;;;;;;13.50;65.40;;;;;;5011346;28;19947;-76
2023/04/23 02:58:34;;;;;;;;;;;13.50;65.40;;;;;;5027528;28;20674;-77
2023/04/23 03:01:00;;;;;;;;;;;13.50;65.40;;;;;;4998408;28;19974;-77
2023/04/23 03:03:26;;;;;;;;;;;13.50;65.40;;;;;;5015060;28;20433;-77
2023/04/23 03:05:51;;;;;;;;;;;13.50;65.50;;;;;;5028742;28;19929;-77
2023/04/23 03:08:16;;;;;;;;;;;13.50;65.50;;;;;;5008349;28;20031;-77
2023/04/23 03:10:42;;;;;;;;;;;13.50;65.60;;;;;;5022849;28;20016;-77
2023/04/23 03:13:07;;;;;;;;;;;13.50;65.60;;;;;;4998913;28;20374;-77
2023/04/23 03:15:33;;;;;;;;;;;13.50;65.60;;;;;;5027998;28;20418;-77
2023/04/23 03:18:00;;;;;;;;;;;13.50;65.60;;;;;;4992465;28;19928;-77
2023/04/23 03:20:26;;;;;;;;;;;13.50;65.60;;;;;;4997280;28;19925;-77
2023/04/23 03:22:51;;;;;;;;;;;13.50;65.60;;;;;;5027201;28;19958;-77
2023/04/23 03:25:17;;;;;;;;;;;13.50;65.70;;;;;;4998116;28;19921;-77
2023/04/23 03:27:43;;;;;;;;;;;13.40;65.70;;;;;;5013451;28;19976;-76
2023/04/23 03:30:09;;;;;;;;;;;13.40;65.70;;;;;;4981146;28;19925;-77
2023/04/23 03:32:35;;;;;;;;;;;13.40;65.80;;;;;;5010322;28;20384;-78
2023/04/23 03:35:00;;;;;;;;;;;13.40;65.80;;;;;;4997583;28;20141;-76
2023/04/23 03:37:26;;;;;;;;;;;13.40;65.80;;;;;;4996430;28;20620;-77
2023/04/23 03:39:51;;;;;;;;;;;13.40;65.80;;;;;;5012030;28;19932;-77
2023/04/23 03:42:17;;;;;;;;;;;13.40;65.90;;;;;;4984880;28;20399;-77
2023/04/23 03:44:42;;;;;;;;;;;13.40;65.90;;;;;;5002421;28;19933;-77
2023/04/23 03:47:07;;;;;;;;;;;13.40;66.00;;;;;;5013083;28;22128;-77
2023/04/23 03:49:33;;;;;;;;;;;13.40;66.00;;;;;;5018089;28;19921;-77
2023/04/23 03:51:58;;;;;;;;;;;13.40;66.00;;;;;;4982631;28;19921;-77
2023/04/23 03:54:25;;;;;;;;;;;13.40;66.00;;;;;;4998927;28;19951;-77
2023/04/23 03:56:50;;;;;;;;;;;13.40;66.00;;;;;;5016771;28;19921;-77
2023/04/23 03:59:16;;;;;;;;;;;13.40;66.00;;;;;;4983459;28;19987;-77
2023/04/23 04:01:42;;;;;;;;;;;13.40;66.00;;;;;;5019160;28;19932;-77
2023/04/23 04:04:07;;;;;;;;;;;13.40;66.00;;;;;;4998200;28;20539;-77
2023/04/23 04:06:32;;;;;;;;;;;13.30;66.80;;;;;;4998541;28;20372;-76
2023/04/23 04:08:58;;;;;;;;;;;13.40;66.00;;;;;;5015428;28;19924;-78
2023/04/23 04:11:24;;;;;;;;;;;13.40;66.10;;;;;;5014089;28;19955;-77
2023/04/23 04:13:49;;;;;;;;;;;13.30;66.00;;;;;;5015950;28;19925;-78
2023/04/23 04:16:15;;;;;;;;;;;13.30;66.00;;;;;;5015557;28;20306;-77
2023/04/23 04:18:40;;;;;;;;;;;13.30;66.00;;;;;;4998105;28;19921;-77
2023/04/23 04:21:06;;;;;;;;;;;13.30;66.00;;;;;;4998728;28;19971;-77
2023/04/23 04:23:32;;;;;;;;;;;13.40;66.10;;;;;;5019428;28;20011;-76
2023/04/23 04:25:58;;;;;;;;;;;13.30;66.10;;;;;;5000846;28;19921;-77
2023/04/23 04:28:24;;;;;;;;;;;13.30;66.00;;;;;;5018347;28;19922;-77
2023/04/23 04:30:50;;;;;;;;;;;13.30;66.10;;;;;;5033027;28;19929;-78
2023/04/23 04:33:15;;;;;;;;;;;13.30;66.10;;;;;;5051632;28;20004;-77
2023/04/23 04:35:41;;;;;;;;;;;13.30;66.10;;;;;;5032160;28;20745;-77
2023/04/23 04:38:07;;;;;;;;;;;13.30;66.20;;;;;;5033609;28;19921;-77
2023/04/23 04:40:33;;;;;;;;;;;13.30;66.20;;;;;;5031297;28;19925;-77
2023/04/23 04:42:59;;;;;;;;;;;13.30;66.20;;;;;;5019995;28;19929;-77
2023/04/23 04:45:24;;;;;;;;;;;13.30;66.20;;;;;;5017658;28;20341;-77
2023/04/23 04:47:50;;;;;;;;;;;13.20;66.10;;;;;;5015021;28;19921;-77
2023/04/23 04:50:16;;;;;;;;;;;13.20;66.20;;;;;;5001956;28;20563;-78
2023/04/23 04:52:41;;;;;;;;;;;13.30;66.20;;;;;;5020766;28;19940;-76
2023/04/23 04:55:07;;;;;;;;;;;13.30;66.30;;;;;;5017534;28;19921;-77
2023/04/23 04:57:32;;;;;;;;;;;13.20;66.20;;;;;;5003718;28;19955;-77
2023/04/23 05:00:01;;;;;;;;;;;13.30;66.20;;;;;;5018942;28;19964;-77
2023/04/23 05:02:26;;;;;;;;;;;13.30;66.30;;;;;;5016564;28;19956;-77
2023/04/23 05:04:51;;;;;;;;;;;13.20;66.20;;;;;;5016318;28;20572;-76
2023/04/23 05:07:17;;;;;;;;;;;13.20;66.20;;;;;;5019151;28;19925;-78
2023/04/23 05:09:43;;;;;;;;;;;13.30;66.30;;;;;;5036755;28;19932;-77
2023/04/23 05:12:08;;;;;;;;;;;13.30;66.30;;;;;;4988867;28;19979;-78
2023/04/23 05:14:33;;;;;;;;;;;13.20;66.20;;;;;;5019101;28;20008;-77
2023/04/23 05:16:59;;;;;;;;;;;13.30;66.30;;;;;;5005680;28;20019;-78
2023/04/23 05:19:25;;;;;;;;;;;13.30;66.40;;;;;;5017118;28;20575;-77
2023/04/23 05:21:50;;;;;;;;;;;13.30;66.40;;;;;;5015617;28;19921;-77
2023/04/23 05:24:15;;;;;;;;;;;13.20;66.30;;;;;;5003904;28;20011;-77
2023/04/23 05:26:41;;;;;;;;;;;13.30;66.40;;;;;;4998643;28;19964;-78
2023/04/23 05:29:06;;;;;;;;;;;13.30;66.40;;;;;;5001852;28;19921;-78
2023/04/23 05:31:32;;;;;;;;;;;13.30;66.40;;;;;;4997903;28;20377;-78
2023/04/23 05:33:57;;;;;;;;;;;13.30;66.40;;;;;;5017203;28;20027;-77
2023/04/23 05:36:23;;;;;;;;;;;13.30;66.40;;;;;;4998077;28;19928;-78
2023/04/23 05:38:48;;;;;;;;;;;13.30;66.40;;;;;;5031897;28;20585;-78
2023/04/23 05:41:14;;;;;;;;;;;13.30;66.40;;;;;;4983118;28;19926;-77
2023/04/23 05:43:39;;;;;;;;;;;13.30;66.40;;;;;;5016807;28;20305;-77
2023/04/23 05:46:06;;;;;;;;;;;13.30;66.40;;;;;;5001362;28;19921;-76
2023/04/23 05:48:31;;;;;;;;;;;13.30;66.40;;;;;;5011330;28;19930;-77
2023/04/23 05:50:57;;;;;;;;;;;13.30;66.40;;;;;;5014619;28;19929;-77
2023/04/23 05:53:22;;;;;;;;;;;13.30;66.30;;;;;;5011979;28;19921;-78
2023/04/23 05:55:48;;;;;;;;;;;13.30;67.20;;;;;;5012624;28;19925;-77
2023/04/23 05:58:14;;;;;;;;;;;13.30;66.40;;;;;;5010621;28;20447;-77
2023/04/23 06:00:40;;;;;;;;;;;13.30;66.40;;;;;;4998792;28;19929;-78
2023/04/23 06:03:06;;;;;;;;;;;13.30;66.40;;;;;;5016945;28;20617;-78
2023/04/23 06:05:31;;;;;;;;;;;13.30;66.40;;;;;;5015511;28;20250;-77
2023/04/23 06:07:57;;;;;;;;;;;13.30;66.40;;;;;;5000752;28;19974;-77
2023/04/23 06:10:22;;;;;;;;;;;13.30;66.50;;;;;;5004304;28;19929;-77
2023/04/23 06:12:48;;;;;;;;;;;13.30;66.50;;;;;;5016685;28;19925;-78
2023/04/23 06:15:13;;;;;;;;;;;13.30;66.50;;;;;;5003976;28;19974;-78
2023/04/23 06:17:39;;;;;;;;;;;13.40;66.50;;;;;;5050731;28;19940;-78
2023/04/23 06:20:05;;;;;;;;;;;13.40;66.50;;;;;;5019043;28;20023;-79
2023/04/23 06:22:31;;;;;;;;;;;13.40;66.50;;;;;;5037006;28;19920;-77
2023/04/23 06:24:56;;;;;;;;;;;13.50;66.50;;;;;;5047488;28;19925;-78
2023/04/23 06:27:22;;;;;;;;;;;13.50;66.40;;;;;;5016745;28;20015;-77
2023/04/23 06:29:47;;;;;;;;;;;13.60;66.60;;;;;;5018692;28;20386;-78
2023/04/23 06:32:13;;;;;;;;;;;13.60;66.30;;;;;;5031903;28;19974;-78
2023/04/23 06:34:38;;;;;;;;;;;13.70;66.40;;;;;;5019649;28;20283;-77
2023/04/23 06:37:04;;;;;;;;;;;13.80;67.20;;;;;;5002486;28;20678;-77
2023/04/23 06:39:29;;;;;;;;;;;13.80;66.30;;;;;;5034071;28;19990;-76
2023/04/23 06:41:55;;;;;;;;;;;13.90;66.30;;;;;;5016035;28;19932;-77
2023/04/23 06:44:20;;;;;;;;;;;13.90;66.10;;;;;;5014934;28;19964;-77
2023/04/23 06:46:46;;;;;;;;;;;14.00;66.10;;;;;;5028757;28;20020;-77
2023/04/23 06:49:11;;;;;;;;;;;14.20;66.10;;;;;;5029455;28;19920;-76
2023/04/23 06:51:37;;;;;;;;;;;14.20;66.00;;;;;;5031613;28;20555;-78
2023/04/23 06:54:02;;;;;;;;;;;14.30;66.00;;;;;;5016199;28;20000;-77
2023/04/23 06:56:28;;;;;;;;;;;14.40;65.90;;;;;;5033010;28;19923;-78
2023/04/23 06:58:53;;;;;;;;;;;14.50;65.90;;;;;;5030250;28;20051;-77
2023/04/23 07:01:19;;;;;;;;;;;14.60;65.80;;;;;;4999557;28;20007;-78
2023/04/23 07:03:47;;;;;;;;;;;14.70;65.70;;;;;;5014490;28;19971;-78
2023/04/23 07:06:16;;;;;;;;;;;14.80;65.60;;;;;;5029532;28;20007;-78
2023/04/23 07:08:42;;;;;;;;;;;14.90;65.50;;;;;;5034229;28;19933;-77
2023/04/23 07:11:07;;;;;;;;;;;15.00;65.50;;;;;;5032877;28;19977;-77
2023/04/23 07:13:33;;;;;;;;;;;15.00;65.40;;;;;;5020845;28;20023;-77
2023/04/23 07:15:58;;;;;;;;;;;15.10;65.40;;;;;;5030595;28;19963;-78
2023/04/23 07:18:24;;;;;;;;;;;15.20;65.40;;;;;;5031723;28;19960;-77
2023/04/23 07:20:50;;;;;;;;;;;15.30;65.30;;;;;;5019746;28;20008;-78
2023/04/23 07:23:15;;;;;;;;;;;15.30;65.20;;;;;;5014007;28;19920;-77
2023/04/23 07:25:40;;;;;;;;;;;15.40;65.10;;;;;;5016499;28;20399;-77
2023/04/23 07:28:06;;;;;;;;;;;15.50;65.10;;;;;;5020727;28;19928;-78
2023/04/23 07:30:31;;;;;;;;;;;15.60;65.00;;;;;;5019735;28;19920;-78
2023/04/23 07:32:57;;;;;;;;;;;15.70;65.00;;;;;;5004926;28;19920;-78
2023/04/23 07:35:22;;;;;;;;;;;15.70;64.80;;;;;;5018774;28;19924;-78
2023/04/23 07:37:52;;;;;;;;;;;15.90;64.90;;;;;;5001871;28;20025;-78
2023/04/23 07:40:21;;;;;;;;;;;16.00;64.70;;;;;;5035218;28;20392;-78
2023/04/23 07:42:46;;;;;;;;;;;16.00;64.60;;;;;;5011144;28;20442;-78
2023/04/23 07:45:12;;;;;;;;;;;16.00;64.50;;;;;;5032359;28;19921;-78
2023/04/23 07:47:37;;;;;;;;;;;16.10;64.50;;;;;;5034758;28;19925;-78
2023/04/23 07:50:03;;;;;;;;;;;16.10;64.50;;;;;;5033418;28;20584;-78
2023/04/23 07:52:28;;;;;;;;;;;16.20;64.50;;;;;;5032733;28;19940;-78
2023/04/23 07:54:54;;;;;;;;;;;16.20;64.40;;;;;;5015253;28;19925;-77
2023/04/23 07:57:20;;;;;;;;;;;16.30;64.40;;;;;;5015692;28;19916;-77
2023/04/23 07:59:45;;;;;;;;;;;16.30;64.40;;;;;;5012717;28;19948;-78
2023/04/23 08:02:11;;;;;;;;;;;16.40;64.30;;;;;;5016544;28;19921;-77
2023/04/23 08:04:36;;;;;;;;;;;16.50;64.30;;;;;;5018354;28;20043;-78
2023/04/23 08:07:02;;;;;;;;;;;16.50;64.30;;;;;;5032087;28;20603;-78
2023/04/23 08:09:28;;;;;;;;;;;16.60;64.30;;;;;;5004609;28;19977;-77
2023/04/23 08:11:54;;;;;;;;;;;16.60;64.20;;;;;;5015738;28;19933;-77
2023/04/23 08:14:19;;;;;;;;;;;16.60;64.20;;;;;;5031462;28;20016;-78
2023/04/23 08:16:45;;;;;;;;;;;16.60;64.10;;;;;;5030188;28;19925;-76
2023/04/23 08:19:10;;;;;;;;;;;16.70;64.10;;;;;;5034810;28;19927;-76
2023/04/23 08:21:36;;;;;;;;;;;16.70;64.10;;;;;;5019197;28;20666;-76
2023/04/23 08:24:05;;;;;;;;;;;16.80;64.00;;;;;;5032271;28;20462;-76
2023/04/23 08:26:30;;;;;;;;;;;17.00;64.10;;;;;;5017186;28;19921;-77
2023/04/23 08:28:56;;;;;;;;;;;17.10;64.00;;;;;;5015499;28;19928;-78
2023/04/23 08:31:21;;;;;;;;;;;17.20;63.70;;;;;;5034383;28;19983;-78
2023/04/23 08:33:47;;;;;;;;;;;17.30;63.60;;;;;;5034745;28;19927;-78
2023/04/23 08:36:14;;;;;;;;;;;17.40;63.50;;;;;;5015540;28;19956;-78
2023/04/23 08:38:39;;;;;;;;;;;17.40;63.40;;;;;;5049039;28;19975;-78
2023/04/23 08:41:05;;;;;;;;;;;17.50;63.40;;;;;;5018520;28;19933;-78
2023/04/23 08:43:31;;;;;;;;;;;17.60;63.30;;;;;;5014262;28;19921;-78
2023/04/23 08:45:57;;;;;;;;;;;17.80;63.30;;;;;;4998863;28;20454;-78
2023/04/23 08:48:23;;;;;;;;;;;18.00;63.20;;;;;;5033066;28;20015;-78
2023/04/23 08:50:48;;;;;;;;;;;18.10;63.10;;;;;;5030649;28;20710;-78
2023/04/23 08:53:16;;;;;;;;;;;18.30;62.80;;;;;;5030296;28;19920;-78
2023/04/23 08:55:42;;;;;;;;;;;18.50;62.60;;;;;;5016111;28;19975;-78
2023/04/23 08:58:07;;;;;;;;;;;18.60;62.50;;;;;;5012148;28;20334;-78
2023/04/23 09:00:33;;;;;;;;;;;18.70;62.30;;;;;;5018318;28;19939;-78
2023/04/23 09:02:59;;;;;;;;;;;18.90;62.20;;;;;;5019045;28;19944;-78
2023/04/23 09:05:25;;;;;;;;;;;19.10;62.00;;;;;;5016547;28;20288;-78
2023/04/23 09:07:50;;;;;;;;;;;19.30;61.80;;;;;;5035070;28;19921;-78
2023/04/23 09:10:16;;;;;;;;;;;19.40;61.70;;;;;;5032718;28;19926;-78
2023/04/23 09:12:41;;;;;;;;;;;19.50;61.50;;;;;;5014641;28;19925;-78
2023/04/23 09:15:10;;;;;;;;;;;19.70;61.40;;;;;;4985447;28;20058;-78
2023/04/23 09:17:37;;;;;;;;;;;19.80;61.20;;;;;;4988614;28;20470;-78
2023/04/23 09:20:02;;;;;;;;;;;19.90;61.00;;;;;;5005405;28;20435;-77
2023/04/23 09:22:46;;;;;;;;;;;20.00;60.80;;;;;;4998967;28;20018;-79
2023/04/23 09:25:12;;;;;;;;;;;20.10;60.80;;;;;;5009665;28;19920;-78
2023/04/23 09:27:38;;;;;;;;;;;20.20;60.70;;;;;;4996784;28;19983;-78
2023/04/23 09:30:06;;;;;;;;;;;20.30;60.60;;;;;;5005509;28;19920;-78
2023/04/23 09:32:32;;;;;;;;;;;20.40;60.50;;;;;;4999841;28;19960;-79
2023/04/23 09:34:57;;;;;;;;;;;20.50;60.40;;;;;;5017431;28;19979;-78
2023/04/23 09:37:26;;;;;;;;;;;20.70;60.20;;;;;;4996902;28;19917;-78
2023/04/23 09:39:54;;;;;;;;;;;20.80;60.00;;;;;;5004349;28;19921;-79
2023/04/23 09:42:20;;;;;;;;;;;20.90;59.90;;;;;;4994006;28;19924;-78
2023/04/23 09:44:46;;;;;;;;;;;21.10;59.90;;;;;;5004592;28;20571;-79
2023/04/23 09:47:14;;;;;;;;;;;21.20;59.60;;;;;;5005621;28;19921;-79
2023/04/23 09:49:49;;;;;;;;;;;21.40;59.70;;;;;;5004913;28;20280;-79
2023/04/23 09:52:14;;;;;;;;;;;21.60;59.40;;;;;;5017485;28;20409;-79
2023/04/23 09:54:40;;;;;;;;;;;21.80;59.30;;;;;;5016601;28;20498;-78
2023/04/23 09:57:07;;;;;;;;;;;21.90;59.20;;;;;;4984056;28;19971;-78
2023/04/23 09:59:34;;;;;;;;;;;22.00;59.00;;;;;;4991579;28;19929;-78
2023/04/23 10:02:00;;;;;;;;;;;22.20;59.00;;;;;;5003700;28;19928;-79
2023/04/23 10:04:26;;;;;;;;;;;22.40;58.80;;;;;;5004307;28;19925;-79
2023/04/23 10:06:58;;;;;;;;;;;22.50;58.60;;;;;;5002622;28;20360;-76
2023/04/23 10:09:24;;;;;;;;;;;22.70;58.50;;;;;;5002402;28;19921;-78
2023/04/23 10:11:54;;;;;;;;;;;22.90;58.30;;;;;;5011070;28;19937;-79
2023/04/23 10:14:22;;;;;;;;;;;23.10;58.30;;;;;;5028184;28;19978;-78
2023/04/23 10:16:52;;;;;;;;;;;23.30;58.10;;;;;;5011028;28;19922;-78
2023/04/23 10:19:18;;;;;;;;;;;23.50;58.00;;;;;;5011181;28;20387;-77
2023/04/23 10:21:45;;;;;;;;;;;23.70;57.60;;;;;;5008728;28;19921;-78
2023/04/23 10:24:10;;;;;;;;;;;23.80;57.40;;;;;;5007527;28;19926;-78
2023/04/23 10:26:37;;;;;;;;;;;23.90;57.40;;;;;;5002674;28;19998;-76
2023/04/23 10:29:02;;;;;;;;;;;24.00;57.40;;;;;;4994007;28;19925;-78
2023/04/23 10:31:28;;;;;;;;;;;24.00;57.20;;;;;;5008545;28;19921;-79
2023/04/23 10:33:53;;;;;;;;;;;24.00;57.20;;;;;;5025287;28;19967;-78
2023/04/23 10:36:19;;;;;;;;;;;24.00;57.20;;;;;;5023812;28;20303;-78
2023/04/23 10:38:45;;;;;;;;;;;24.00;57.20;;;;;;5015689;28;19921;-79
2023/04/23 10:41:10;;;;;;;;;;;24.20;57.30;;;;;;5014050;28;19929;-76
2023/04/23 10:43:36;;;;;;;;;;;24.40;57.20;;;;;;5030069;28;20023;-76
2023/04/23 10:46:01;;;;;;;;;;;24.60;56.90;;;;;;5013368;28;19925;-75
2023/04/23 10:48:27;;;;;;;;;;;24.70;56.70;;;;;;5013619;28;20008;-76
2023/04/23 10:50:56;;;;;;;;;;;24.80;56.70;;;;;;5016624;28;19921;-75
2023/04/23 10:53:21;;;;;;;;;;;25.00;56.60;;;;;;5016064;28;20774;-76
2023/04/23 10:55:47;;;;;;;;;;;25.10;56.30;;;;;;5011368;28;19922;-76
2023/04/23 10:58:12;;;;;;;;;;;25.20;56.20;;;;;;5031782;28;19925;-76
2023/04/23 11:00:47;;;;;;;;;;;25.30;56.00;;;;;;5016898;28;19932;-79
2023/04/23 11:03:31;;;;;;;;;;;25.30;56.00;;;;;;5016753;28;19925;-78
2023/04/23 11:05:59;;;;;;;;;;;25.40;56.10;;;;;;5013923;28;19921;-78
2023/04/23 11:08:25;;;;;;;;;;;25.40;56.00;;;;;;5011478;28;20636;-76
2023/04/23 11:10:57;;;;;;;;;;;25.50;56.00;;;;;;5023580;28;19968;-77
2023/04/23 11:13:23;;;;;;;;;;;25.50;56.00;;;;;;5017648;28;19959;-75
2023/04/23 11:16:09;;;;;;;;;;;25.50;55.90;;;;;;5018626;28;20447;-76
2023/04/23 11:18:53;;;;;;;;;;;25.40;55.90;;;;;;5032805;28;20069;-76
2023/04/23 11:21:19;;;;;;;;;;;25.40;56.00;;;;;;5031218;28;19925;-76
2023/04/23 11:23:44;;;;;;;;;;;25.50;55.60;;;;;;5015113;28;20306;-76
2023/04/23 11:26:10;;;;;;;;;;;25.50;55.70;;;;;;5006814;28;19921;-76
2023/04/23 11:28:35;;;;;;;;;;;25.40;55.60;;;;;;5002694;28;19932;-76
2023/04/23 11:31:01;;;;;;;;;;;25.40;55.90;;;;;;5016762;28;20025;-77
2023/04/23 11:33:27;;;;;;;;;;;25.40;55.80;;;;;;5017982;28;20560;-76
2023/04/23 11:35:53;;;;;;;;;;;25.30;55.80;;;;;;5008740;28;19921;-75
2023/04/23 11:38:19;;;;;;;;;;;25.20;55.80;;;;;;5028527;28;19932;-76
2023/04/23 11:40:45;;;;;;;;;;;25.20;56.00;;;;;;5035094;28;19928;-76
2023/04/23 11:43:11;;;;;;;;;;;25.20;55.90;;;;;;5017693;28;19970;-75
2023/04/23 11:45:36;;;;;;;;;;;25.20;55.90;;;;;;5018368;28;19924;-75
2023/04/23 11:48:02;;;;;;;;;;;25.20;55.70;;;;;;5016781;28;20354;-76
2023/04/23 11:50:31;;;;;;;;;;;25.20;55.90;;;;;;5034638;28;19927;-78
2023/04/23 11:53:02;;;;;;;;;;;25.20;55.90;;;;;;5015679;28;19925;-76
2023/04/23 11:55:28;;;;;;;;;;;25.20;55.90;;;;;;5010791;28;19931;-77
2023/04/23 11:57:53;;;;;;;;;;;25.20;55.80;;;;;;5000140;28;19925;-78
2023/04/23 12:00:20;;;;;;;;;;;25.20;55.80;;;;;;5033300;28;19929;-77
2023/04/23 12:02:55;;;;;;;;;;;25.20;55.80;;;;;;5031597;28;19920;-77
2023/04/23 12:05:21;;;;;;;;;;;25.20;55.80;;;;;;5034870;28;19925;-77
2023/04/23 12:07:47;;;;;;;;;;;25.30;55.80;;;;;;5020571;28;19921;-78
2023/04/23 12:10:22;;;;;;;;;;;25.30;55.70;;;;;;5026256;28;20051;-78
2023/04/23 12:12:48;;;;;;;;;;;25.30;55.70;;;;;;5002912;28;19971;-78
2023/04/23 12:15:14;;;;;;;;;;;25.50;55.70;;;;;;5013717;28;20027;-78
2023/04/23 12:17:39;;;;;;;;;;;25.70;55.60;;;;;;5029744;28;19921;-78
2023/04/23 12:20:06;;;;;;;;;;;25.90;55.50;;;;;;5034047;28;20000;-78
2023/04/23 12:22:31;;;;;;;;;;;25.90;55.10;;;;;;5031106;28;20004;-77
2023/04/23 12:24:59;;;;;;;;;;;25.90;55.00;;;;;;5001860;28;19921;-78
2023/04/23 12:27:25;;;;;;;;;;;25.90;55.10;;;;;;5032732;28;19920;-78
2023/04/23 12:30:00;;;;;;;;;;;26.00;55.40;;;;;;5012303;28;19975;-77
2023/04/23 12:32:26;;;;;;;;;;;26.10;55.00;;;;;;5034484;28;19927;-77
2023/04/23 12:34:52;;;;;;;;;;;26.10;54.90;;;;;;5033827;28;19921;-78
2023/04/23 12:37:17;;;;;;;;;;;26.10;54.80;;;;;;5036557;28;20010;-77
2023/04/23 12:39:43;;;;;;;;;;;26.10;54.80;;;;;;5032025;28;20026;-79
2023/04/23 12:42:09;;;;;;;;;;;26.20;54.90;;;;;;5015932;28;19986;-77
2023/04/23 12:44:35;;;;;;;;;;;26.30;54.80;;;;;;5028902;28;19948;-78
2023/04/23 12:47:04;;;;;;;;;;;26.30;54.70;;;;;;5014311;28;20012;-77
2023/04/23 12:49:29;;;;;;;;;;;26.30;55.30;;;;;;5029895;28;20047;-77
2023/04/23 12:52:00;;;;;;;;;;;26.40;54.70;;;;;;5032141;28;20003;-78
2023/04/23 12:54:29;;;;;;;;;;;26.40;54.60;;;;;;5031926;28;19979;-77
2023/04/23 12:56:55;;;;;;;;;;;26.40;54.50;;;;;;5031161;28;19966;-77
2023/04/23 12:59:21;;;;;;;;;;;26.50;54.50;;;;;;5014807;28;19924;-78
2023/04/23 13:01:46;;;;;;;;;;;26.50;54.60;;;;;;5030574;28;19928;-78
2023/04/23 13:04:12;;;;;;;;;;;26.60;54.50;;;;;;5002889;28;19921;-78
2023/04/23 13:06:37;;;;;;;;;;;26.50;54.40;;;;;;5031277;28;20018;-78
2023/04/23 13:09:04;;;;;;;;;;;26.50;54.40;;;;;;5017098;28;20409;-77
2023/04/23 13:11:30;;;;;;;;;;;26.40;54.40;;;;;;5043182;28;19947;-78
2023/04/23 13:13:57;;;;;;;;;;;26.40;54.40;;;;;;5033262;28;20297;-78
2023/04/23 13:16:23;;;;;;;;;;;26.40;54.50;;;;;;5013026;28;20008;-77
2023/04/23 13:18:50;;;;;;;;;;;26.40;54.40;;;;;;5015963;28;19936;-78
2023/04/23 13:21:16;;;;;;;;;;;26.40;54.40;;;;;;5011878;28;20779;-78
2023/04/23 13:23:41;;;;;;;;;;;26.40;54.30;;;;;;5017093;28;19920;-75
2023/04/23 13:26:07;;;;;;;;;;;26.40;54.30;;;;;;5030259;28;19925;-75
2023/04/23 13:28:33;;;;;;;;;;;26.40;54.40;;;;;;5027056;28;19925;-76
2023/04/23 13:30:58;;;;;;;;;;;26.50;54.40;;;;;;5017371;28;19932;-75
2023/04/23 13:33:24;;;;;;;;;;;26.60;54.40;;;;;;5045797;28;20422;-76
2023/04/23 13:35:49;;;;;;;;;;;26.50;54.20;;;;;;5015279;28;19974;-76
2023/04/23 13:38:15;;;;;;;;;;;26.50;54.10;;;;;;5015642;28;19921;-76
2023/04/23 13:40:40;;;;;;;;;;;26.60;54.30;;;;;;5000136;28;19925;-76
2023/04/23 13:43:05;;;;;;;;;;;26.60;54.30;;;;;;5017355;28;20535;-76
2023/04/23 13:45:31;;;;;;;;;;;26.70;54.10;;;;;;5031611;28;19967;-76
2023/04/23 13:47:56;;;;;;;;;;;26.70;54.00;;;;;;5013405;28;19921;-75
2023/04/23 13:50:22;;;;;;;;;;;26.80;54.00;;;;;;5000221;28;19997;-75
2023/04/23 13:52:47;;;;;;;;;;;26.80;53.90;;;;;;5030565;28;19920;-75
2023/04/23 13:55:13;;;;;;;;;;;26.80;54.60;;;;;;5014661;28;20601;-76
2023/04/23 13:57:38;;;;;;;;;;;26.90;53.90;;;;;;5030498;28;19921;-75
2023/04/23 14:00:04;;;;;;;;;;;27.00;53.80;;;;;;4998341;28;20422;-75
2023/04/23 14:02:30;;;;;;;;;;;27.00;53.70;;;;;;5029681;28;20038;-76
2023/04/23 14:04:57;;;;;;;;;;;27.10;53.70;;;;;;5031139;28;20307;-76
2023/04/23 14:07:22;;;;;;;;;;;27.10;53.70;;;;;;4997527;28;19927;-78
2023/04/23 14:09:51;;;;;;;;;;;27.20;53.70;;;;;;5032007;28;19917;-78